• Join FlightAware (Why Join?)
  • Login
  • US Flag 
11:16PM EST


 

Airport Tracker/Info


-or-


 

Live Flight TrackerFlight Track Log ✈ AFR3886 ✈ 07-May-2013 ✈ LFPG / CDG - OJAI / AMM

Flight Track Log - Related Links

Times and Time Zones

All times are in EDT time to prevent confusion due to time zone crossing. See the AFR3886 flight status page for this flight to view local times or setup timezone preferences in your user account.

Time Position Orientation Groundspeed Altitude Reporting Facility
EDT Latitude Longitude Course Direction KTS MPH feet Rate Location/Type
08:03AM 48.9303 2.8433 112° Southeast  Level Estimated
08:04AM 48.8873 3.0016 112° Southeast  Level Estimated
08:05AM 48.8441 3.1597 112° Southeast  Level Estimated
08:09AM 48.8944 2.9952 112° Southeast  Level Estimated
08:10AM 48.8512 3.1533 112° Southeast  Level Estimated
08:10AM 48.9960 2.5603 112° Southeast 169 194 700  Level FlightAware ADS-B
08:10AM 48.9950 2.5448 264° West 169 194 1,200 2,280 Climbing FlightAware ADS-B
08:10AM 48.9936 2.5208 265° West 169 194 2,000 1,860 Climbing FlightAware ADS-B
08:11AM 48.9928 2.4957 267° West 171 197 2,500 1,620 Climbing FlightAware ADS-B
08:11AM 48.9915 2.4757 264° West 179 206 3,000 1,680 Climbing FlightAware ADS-B
08:11AM 48.9902 2.4536 265° West 175 201 3,500 840 Climbing FlightAware ADS-B
08:12AM 48.9882 2.4123 266° West 202 232 3,700 360 Climbing FlightAware ADS-B
08:12AM 48.9868 2.3872 265° West 239 275 3,800 1,080 Climbing FlightAware ADS-B
08:12AM 48.9853 2.3588 265° West 252 290 4,300 2,040 Climbing FlightAware ADS-B
08:13AM 48.9838 2.3317 265° West 255 293 4,900 2,400 Climbing FlightAware ADS-B
08:13AM 48.9824 2.3035 266° West 263 303 5,500 1,920 Climbing FlightAware ADS-B
08:13AM 48.9809 2.2747 265° West 274 315 5,900 1,740 Climbing FlightAware ADS-B
08:13AM 48.9795 2.2524 265° West 275 316 6,300 2,520 Climbing FlightAware ADS-B
08:13AM 48.9789 2.2473 260° West 272 313 6,500 3,000 Climbing FlightAware ADS-B
08:13AM 48.9773 2.2390 254° West 270 311 6,700 2,640 Climbing FlightAware ADS-B
08:13AM 48.9749 2.2315 244° Southwest 269 310 6,900 3,300 Climbing FlightAware ADS-B
08:14AM 48.9715 2.2242 234° Southwest 266 306 7,200 2,640 Climbing FlightAware ADS-B
08:14AM 48.9681 2.2190 225° Southwest 267 307 7,300 1,320 Climbing FlightAware ADS-B
08:14AM 48.9630 2.2131 217° Southwest 268 308 7,400 1,800 Climbing FlightAware ADS-B
08:14AM 48.9570 2.2083 208° Southwest 268 308 7,600 1,980 Climbing FlightAware ADS-B
08:14AM 48.9533 2.2062 200° South 268 308 7,700 1,500 Climbing FlightAware ADS-B
08:14AM 48.9486 2.2042 196° South 270 311 7,800 1,860 Climbing FlightAware ADS-B
08:14AM 48.9296 2.1973 193° South 273 314 8,300 1,800 Climbing FlightAware ADS-B
08:14AM 48.9102 2.1913 191° South 282 325 8,700 1,620 Climbing FlightAware ADS-B
08:14AM 48.9065 2.1904 189° South 285 328 8,800 1,500 Climbing FlightAware ADS-B
08:15AM 48.9009 2.1901 182° South 286 329 8,900 1,320 Climbing FlightAware ADS-B
08:15AM 48.8954 2.1909 175° South 286 329 9,000 2,100 Climbing FlightAware ADS-B
08:15AM 48.8823 2.1952 168° South 286 329 9,400 2,160 Climbing FlightAware ADS-B
08:15AM 48.8717 2.2001 163° South 288 331 9,700 1,800 Climbing FlightAware ADS-B
08:15AM 48.8399 2.2152 163° South 299 344 10,400 1,200 Climbing FlightAware ADS-B
08:16AM 48.7975 2.2330 165° South 328 377 10,800 900 Climbing FlightAware ADS-B
08:16AM 48.7514 2.2513 165° South 351 404 11,300 1,260 Climbing FlightAware ADS-B
08:17AM 48.7028 2.2705 165° South 363 418 12,100 1,800 Climbing FlightAware ADS-B
08:17AM 48.6504 2.2916 165° South 368 423 13,200 1,980 Climbing FlightAware ADS-B
08:18AM 48.6010 2.3114 165° South 370 426 14,200 1,800 Climbing FlightAware ADS-B
08:18AM 48.5505 2.3316 165° South 379 436 15,000 1,620 Climbing FlightAware ADS-B
08:19AM 48.4968 2.3530 165° South 384 442 15,900 1,860 Climbing FlightAware ADS-B
08:19AM 48.4451 2.3736 165° South 384 442 16,900 1,740 Climbing FlightAware ADS-B
08:20AM 48.3929 2.3943 165° South 389 448 17,700 1,500 Climbing FlightAware ADS-B
08:21AM 48.3170 2.4240 165° South 394 453 18,900 1,620 Climbing FlightAware
08:21AM 48.2908 2.4347 165° South 393 452 19,300 1,440 Climbing FlightAware ADS-B
08:21AM 48.2319 2.4580 165° South 401 461 20,000 1,440 Climbing FlightAware ADS-B
08:22AM 48.1744 2.4806 165° South 403 464 20,900 1,680 Climbing FlightAware ADS-B
08:23AM 48.1190 2.5024 165° South 398 458 21,800 1,260 Climbing FlightAware ADS-B
08:23AM 48.0609 2.5274 164° South 408 470 22,300 720 Climbing FlightAware ADS-B
08:24AM 48.0010 2.5543 163° South 422 486 22,600 720 Climbing FlightAware ADS-B
08:24AM 47.9443 2.5795 163° South 429 494 23,100 1,020 Climbing FlightAware ADS-B
08:25AM 47.8829 2.6071 163° South 435 501 23,700 1,140 Climbing FlightAware ADS-B
08:25AM 47.8246 2.6335 163° South 436 502 24,300 1,140 Climbing FlightAware ADS-B
08:26AM 47.7649 2.6602 163° South 439 505 24,900 1,080 Climbing FlightAware ADS-B
08:26AM 47.7003 2.6892 163° South 442 509 25,500 1,020 Climbing FlightAware ADS-B
08:27AM 47.6210 2.7246 163° South 442 509 26,200 960 Climbing FlightAware ADS-B
08:27AM 47.5567 2.7532 163° South 446 513 26,700 960 Climbing FlightAware ADS-B
08:28AM 47.4797 2.7875 163° South 449 517 27,400 840 Climbing FlightAware ADS-B
08:29AM 47.3570 2.8420 163° South 456 525 28,200 600 Climbing FlightAware
08:30AM 47.2772 2.8770 163° South 450 518 28,500 240 Climbing FlightAware ADS-B
08:30AM 47.2060 2.9080 164° South 473 544 28,500 480 Level FlightAware
08:33AM 47.1247 3.2405 110° East  Level Estimated
08:33AM 46.9080 3.0380 110° East 491 565 30,000  Level FlightAware
08:35AM 46.8407 3.3177 109° East  Level Estimated
08:36AM 46.8030 3.4728 109° East  Level Estimated
08:36AM 46.5240 3.2040 109° East 504 580 31,700  Level FlightAware
08:37AM 46.3520 3.2770 164° South 500 575 32,700 600 Climbing FlightAware
08:38AM 46.2400 3.3240 164° South 501 577 33,000 180 Climbing FlightAware
08:38AM 46.1420 3.3660 163° South 502 578 33,000  Level FlightAware
08:39AM 46.0550 3.4020 164° South 503 579 33,000  Level FlightAware
08:40AM 45.9510 3.4460 164° South 501 577 33,000  Level FlightAware
08:40AM 45.8610 3.4830 164° South 501 577 33,000  Level FlightAware
08:41AM 45.7630 3.5240 164° South 502 578 33,000  Level FlightAware
08:42AM 45.6760 3.5710 159° South 517 595 33,000 60 Level FlightAware
08:42AM 45.6060 3.6610 138° Southeast 523 602 33,100  Climbing FlightAware
08:43AM 45.5330 3.7780 132° Southeast 518 596 33,000 -120 Descending FlightAware
08:44AM 45.4730 3.8790 130° Southeast 516 594 33,000  Level FlightAware
08:45AM 45.4070 3.9860 131° Southeast 516 594 33,000  Level FlightAware
08:45AM 45.3390 4.0970 131° Southeast 517 595 33,000  Level FlightAware
08:46AM 45.2750 4.2000 131° Southeast 516 594 33,000  Level FlightAware
08:47AM 45.2030 4.3180 131° Southeast 517 595 33,000  Level FlightAware
08:47AM 45.1400 4.4190 131° Southeast 517 595 33,000  Level FlightAware
08:48AM 45.0690 4.5320 132° Southeast 517 595 33,000  Level FlightAware
08:49AM 45.0070 4.6310 132° Southeast 517 595 33,000  Level FlightAware
08:49AM 44.9430 4.7340 131° Southeast 517 595 33,000  Level FlightAware
08:50AM 44.8700 4.8500 132° Southeast 517 595 33,000  Level FlightAware
08:51AM 44.8090 4.9510 130° Southeast 518 596 33,000  Level FlightAware
08:52AM 44.7470 5.0680 127° Southeast 518 596 33,000  Level FlightAware
08:52AM 44.6890 5.1780 127° Southeast 518 596 33,000  Level FlightAware
08:53AM 44.6310 5.2870 127° Southeast 519 597 33,000  Level FlightAware
08:54AM 44.5660 5.4090 127° Southeast 518 596 33,000  Level FlightAware
08:54AM 44.5090 5.5180 126° Southeast 517 595 33,000  Level FlightAware
08:55AM 44.4510 5.6250 127° Southeast 516 594 33,000  Level FlightAware
08:56AM 44.3890 5.7410 127° Southeast 516 594 33,000  Level FlightAware
08:56AM 44.3310 5.8480 127° Southeast 517 595 33,000  Level FlightAware
08:57AM 44.2650 5.9700 127° Southeast 516 594 33,000  Level FlightAware
08:58AM 44.2070 6.0780 127° Southeast 515 593 33,000  Level FlightAware
08:59AM 44.1510 6.1810 127° Southeast 514 592 33,000  Level FlightAware
08:59AM 44.0890 6.2970 127° Southeast 513 590 33,000  Level FlightAware
09:00AM 44.0230 6.4200 127° Southeast 513 590 33,000  Level FlightAware
09:01AM 43.9670 6.5190 128° Southeast 512 589 33,000  Level FlightAware
09:01AM 43.9070 6.6260 128° Southeast 514 592 33,000  Level FlightAware
09:02AM 43.8580 6.7340 122° Southeast 513 590 33,000  Level FlightAware
09:03AM 43.8010 6.8590 122° Southeast 511 588 33,000  Level FlightAware
09:03AM 43.7510 6.9720 121° Southeast 511 588 33,000  Level FlightAware
09:04AM 43.6940 7.0980 122° Southeast 510 587 33,000  Level FlightAware
09:05AM 43.6460 7.2040 122° Southeast 510 587 33,000  Level FlightAware
09:06AM 43.5900 7.3270 122° Southeast 509 586 33,000  Level FlightAware
09:06AM 43.5370 7.4420 122° Southeast 509 586 33,000  Level FlightAware
09:07AM 43.4890 7.5480 122° Southeast 510 587 33,000  Level FlightAware
09:08AM 43.4320 7.6710 123° Southeast 511 588 33,000  Level FlightAware
09:08AM 43.3810 7.7820 122° Southeast 513 590 33,000  Level FlightAware
09:09AM 43.3230 7.9070 122° Southeast 514 592 33,000  Level FlightAware
09:10AM 43.2710 8.0180 123° Southeast 515 593 33,000  Level FlightAware
09:10AM 43.2200 8.1270 123° Southeast 515 593 33,000  Level FlightAware
09:11AM 43.1620 8.2490 123° Southeast 515 593 33,000  Level FlightAware
09:12AM 43.1110 8.3590 122° Southeast 514 592 33,000  Level FlightAware
09:13AM 43.0590 8.4680 123° Southeast 513 590 33,000  Level FlightAware
09:13AM 43.0030 8.5870 123° Southeast 509 586 33,000  Level FlightAware
09:14AM 42.9510 8.6960 123° Southeast 508 585 33,000  Level FlightAware
09:15AM 42.8990 8.8040 123° Southeast 508 585 33,000  Level FlightAware
09:16AM 42.7900 9.0300 123° Southeast 507 583 33,000  Level FlightAware
09:17AM 42.7360 9.1420 123° Southeast 509 586 33,000  Level FlightAware
09:17AM 42.6910 9.2670 116° Southeast 505 581 33,000  Level FlightAware
09:18AM 42.6560 9.3880 111° Southeast 504 580 33,000  Level FlightAware
09:19AM 42.6160 9.5210 112° Southeast 505 581 33,000  Level FlightAware
09:20AM 42.5820 9.6360 112° Southeast 506 582 33,000  Level FlightAware
09:20AM 42.5470 9.7580 111° Southeast 505 581 33,000  Level FlightAware
09:21AM 42.5070 9.8910 112° Southeast 504 580 33,000  Level FlightAware
09:22AM 42.4720 10.0070 112° Southeast 502 578 33,000  Level FlightAware
09:22AM 42.4330 10.1390 112° Southeast 504 580 33,000  Level FlightAware
09:23AM 42.3980 10.2550 112° Southeast 507 583 33,000  Level FlightAware
09:24AM 42.3610 10.3770 112° Southeast 507 583 33,000  Level FlightAware
09:24AM 42.3220 10.5070 112° Southeast 507 583 33,000  Level FlightAware
09:25AM 42.2860 10.6240 113° Southeast 507 583 33,000  Level FlightAware
09:26AM 42.2320 10.8010 112° Southeast 507 583 33,000  Level FlightAware
09:27AM 42.2000 10.9030 113° Southeast 507 583 33,000  Level FlightAware
09:28AM 42.1560 11.0480 112° Southeast 506 582 33,000  Level FlightAware
09:28AM 42.1190 11.1640 113° Southeast 506 582 33,000  Level FlightAware
09:29AM 42.0760 11.2750 118° Southeast 512 589 33,000  Level FlightAware
09:30AM 42.0130 11.3710 131° Southeast 512 589 33,000  Level FlightAware
09:30AM 41.9520 11.4630 132° Southeast 511 588 33,000  Level FlightAware
09:31AM 41.8650 11.5920 132° Southeast 510 587 33,000  Level FlightAware
09:32AM 41.7920 11.7010 132° Southeast 511 588 33,000  Level FlightAware
09:33AM 41.7210 11.8060 132° Southeast 506 582 33,000  Level FlightAware
09:33AM 41.6510 11.9080 133° Southeast 509 586 33,000  Level FlightAware
09:34AM 41.5870 12.0000 133° Southeast 509 586 33,000  Level FlightAware
09:35AM 41.5200 12.0970 133° Southeast 515 593 33,000  Level FlightAware
09:35AM 41.4460 12.2020 133° Southeast 508 585 33,000  Level FlightAware
09:36AM 41.3630 12.3220 133° Southeast 512 589 33,000  Level FlightAware
09:37AM 41.2990 12.4130 133° Southeast 510 587 33,000  Level FlightAware
09:38AM 41.2420 12.5310 123° Southeast 500 575 33,000  Level FlightAware
09:38AM 41.2020 12.6410 116° Southeast 499 574 33,000  Level FlightAware
09:39AM 41.1630 12.7500 115° Southeast 498 573 33,000  Level FlightAware
09:40AM 41.1180 12.8730 116° Southeast 496 571 33,000  Level FlightAware
09:41AM 41.0790 12.9810 116° Southeast 494 568 33,000  Level FlightAware
09:41AM 41.0360 13.1000 116° Southeast 490 564 33,000  Level FlightAware
09:42AM 40.9970 13.2080 116° Southeast 488 562 33,000  Level FlightAware
09:43AM 40.9530 13.3300 115° Southeast 487 560 33,000  Level FlightAware
09:43AM 40.9140 13.4380 116° Southeast 486 559 33,000  Level FlightAware
09:44AM 40.8740 13.5460 116° Southeast 483 556 33,000  Level FlightAware
09:45AM 40.8280 13.6740 115° Southeast 480 552 33,000  Level FlightAware
09:46AM 40.7870 13.7900 115° Southeast 480 552 33,000  Level FlightAware
09:46AM 40.7500 13.8950 115° Southeast 478 550 33,000  Level FlightAware
09:47AM 40.7140 14.0000 114° Southeast 474 545 33,000  Level FlightAware
09:48AM 40.6720 14.1230 114° Southeast 473 544 33,000  Level FlightAware
09:48AM 40.6370 14.2270 114° Southeast 471 542 33,000  Level FlightAware
09:49AM 40.5980 14.3410 114° Southeast 470 541 33,000  Level FlightAware
09:50AM 40.5570 14.4400 119° Southeast 471 542 33,000  Level FlightAware
09:50AM 40.5040 14.5330 127° Southeast 469 540 33,000  Level FlightAware
09:51AM 40.4440 14.6360 127° Southeast 467 537 33,000  Level FlightAware
09:52AM 40.3920 14.7270 127° Southeast 469 540 33,000  Level FlightAware
09:52AM 40.3390 14.8180 127° Southeast 469 540 33,000  Level FlightAware
09:53AM 40.2820 14.9170 127° Southeast 468 539 33,000  Level FlightAware
09:54AM 40.2290 15.0080 127° Southeast 467 537 33,000  Level FlightAware
09:55AM 40.1760 15.0980 128° Southeast 464 534 33,000  Level FlightAware
09:55AM 40.1160 15.2000 128° Southeast 465 535 33,000  Level FlightAware
09:56AM 40.0650 15.2880 127° Southeast 463 533 33,000  Level FlightAware
09:57AM 40.0070 15.3840 128° Southeast 464 534 33,000  Level FlightAware
09:57AM 39.9540 15.4740 128° Southeast 466 536 33,000  Level FlightAware
09:58AM 39.9020 15.5620 128° Southeast 465 535 33,000  Level FlightAware
09:59AM 39.8410 15.6630 128° Southeast 464 534 33,000  Level FlightAware
09:59AM 39.7880 15.7510 128° Southeast 462 532 33,000  Level FlightAware
10:00AM 39.7300 15.8480 128° Southeast 461 531 33,000  Level FlightAware
10:01AM 39.6770 15.9360 128° Southeast 461 531 33,000  Level FlightAware
10:02AM 39.6250 16.0230 128° Southeast 460 529 33,000  Level FlightAware
10:02AM 39.5670 16.1210 127° Southeast 462 532 33,000  Level FlightAware
10:03AM 39.5150 16.2090 127° Southeast 462 532 33,000 60 Level FlightAware
10:04AM 39.4570 16.3080 127° Southeast 458 527 33,100  Climbing FlightAware
10:04AM 39.4060 16.3950 127° Southeast 458 527 33,000 -120 Descending FlightAware
10:05AM 39.3490 16.4920 127° Southeast 455 524 33,000  Level FlightAware
10:06AM 39.2990 16.5770 127° Southeast 455 524 33,000  Level FlightAware
10:07AM 39.2420 16.6720 128° Southeast 455 524 33,000  Level FlightAware
10:07AM 39.1890 16.7620 127° Southeast 457 526 33,000  Level FlightAware
10:08AM 39.1410 16.8430 127° Southeast 457 526 33,000 60 Level FlightAware
10:09AM 39.0860 16.9340 128° Southeast 451 519 33,100 60 Climbing FlightAware
10:09AM 39.0360 17.0180 127° Southeast 451 519 33,100  Level FlightAware
10:10AM 38.9940 17.0910 126° Southeast 451 519 33,100  Level FlightAware
10:11AM 38.9510 17.1630 128° Southeast 451 519 33,100  Level FlightAware
10:11AM 38.8980 17.2540 127° Southeast 451 519 33,100  Level FlightAware
10:12AM 38.8550 17.3270 127° Southeast 451 519 33,100 -60 Level FlightAware
10:13AM 38.8680 17.6140 87° East 452 520 33,000  Descending FlightAware
10:14AM 38.8380 17.7360 107° East 452 520 33,100 60 Climbing FlightAware
10:15AM 38.8110 17.8480 107° East 450 518 33,100 -120 Level FlightAware
10:16AM 38.7850 17.9510 108° East 447 514 33,000 -120 Descending FlightAware
10:16AM 38.7570 18.0630 108° East 447 514 33,000  Level FlightAware
10:17AM 38.7330 18.1620 107° East 447 514 33,000  Level FlightAware
10:18AM 38.7070 18.2660 108° East 444 511 33,000  Level FlightAware
10:19AM 38.6710 18.4100 108° East 437 503 33,000  Level FlightAware
10:19AM 38.6420 18.5230 108° East 432 497 33,000  Level FlightAware
10:20AM 38.6200 18.6090 108° East 432 497 33,000 -120 Level FlightAware
10:21AM 38.5900 18.7300 108° East 437 503 32,900  Descending FlightAware
10:21AM 38.5620 18.8360 109° East 443 510 33,000 60 Climbing FlightAware
10:22AM 38.5340 18.9400 109° East 442 509 33,000 60 Level FlightAware
10:23AM 38.5050 19.0370 111° Southeast 442 509 33,100  Climbing FlightAware
10:24AM 38.4710 19.1500 111° Southeast 441 507 33,000 -120 Descending FlightAware
10:24AM 38.4400 19.2560 110° East 440 506 33,000  Level FlightAware
10:25AM 38.4110 19.3510 111° Southeast 443 510 33,000  Level FlightAware
10:26AM 38.3810 19.4510 111° Southeast 446 513 33,000  Level FlightAware
10:26AM 38.3480 19.5630 111° Southeast 445 512 33,000  Level FlightAware
10:27AM 38.3270 19.6320 111° Southeast 445 512 33,000  Level FlightAware
10:28AM 38.2940 19.7420 111° Southeast 447 514 33,000  Level FlightAware
10:28AM 38.2640 19.8410 111° Southeast 447 514 33,000  Level FlightAware
10:29AM 38.2290 19.9560 111° Southeast 447 514 33,000  Level FlightAware
10:30AM 38.2010 20.0470 111° Southeast 447 514 33,000  Level FlightAware
10:30AM 38.1760 20.1310 111° Southeast 447 514 33,000  Level FlightAware
10:31AM 38.1450 20.2350 111° Southeast 447 514 33,000  Level FlightAware
10:32AM 38.1190 20.3190 111° Southeast 447 514 33,000  Level FlightAware
10:33AM 38.0940 20.4020 111° Southeast 447 514 33,000  Level FlightAware
10:33AM 38.0690 20.4850 111° Southeast 447 514 33,000  Level FlightAware
10:34AM 38.0440 20.5690 111° Southeast 447 514 33,000  Level FlightAware
10:35AM 38.0190 20.6520 111° Southeast 447 514 33,000  Level FlightAware
10:35AM 37.9870 20.7560 111° Southeast 447 514 33,000  Level FlightAware
10:36AM 37.9620 20.8400 111° Southeast 447 514 33,000  Level FlightAware
10:37AM 37.9370 20.9230 111° Southeast 447 514 33,000  Level FlightAware
10:38AM 37.8480 21.1780 114° Southeast 445 512 33,000  Level FlightAware
10:38AM 37.8090 21.3000 112° Southeast 447 514 33,000  Level FlightAware
10:39AM 37.7730 21.4100 112° Southeast 447 514 33,000  Level FlightAware
10:40AM 37.7470 21.4930 112° Southeast 447 514 33,000  Level FlightAware
10:41AM 37.7140 21.5960 112° Southeast 447 514 33,000  Level FlightAware
10:41AM 37.6880 21.6780 112° Southeast 447 514 33,000  Level FlightAware
10:42AM 37.6430 21.8130 113° Southeast 451 519 33,000  Level FlightAware
10:43AM 37.6020 21.9380 112° Southeast 451 519 33,000  Level FlightAware
10:44AM 37.5640 22.0560 112° Southeast 451 519 33,000  Level FlightAware
10:44AM 37.5270 22.1670 113° Southeast 449 517 33,000  Level FlightAware
10:45AM 37.4900 22.2790 113° Southeast 448 516 33,000  Level FlightAware
10:46AM 37.4570 22.3770 113° Southeast 450 518 33,000  Level FlightAware
10:46AM 37.4260 22.4730 112° Southeast 452 520 33,000  Level FlightAware
10:47AM 37.3810 22.6060 113° Southeast 455 524 33,000  Level FlightAware
10:48AM 37.3440 22.7150 113° Southeast 462 532 33,000  Level FlightAware
10:49AM 37.3100 22.8180 113° Southeast 462 532 33,000  Level FlightAware
10:49AM 37.2810 22.9020 113° Southeast 462 532 33,000  Level FlightAware
10:50AM 37.2500 22.9960 112° Southeast 475 547 33,000  Level FlightAware
10:51AM 37.2100 23.1120 113° Southeast 479 551 33,000  Level FlightAware
10:51AM 37.1740 23.2190 113° Southeast 479 551 33,000  Level FlightAware
10:52AM 37.1440 23.3060 113° Southeast 479 551 33,000  Level FlightAware
10:53AM 37.1080 23.4150 112° Southeast 479 551 33,000 360 Level FlightAware
10:54AM 37.0610 23.5460 114° Southeast 33,300 600 Climbing FlightAware
10:54AM 37.0200 23.6670 113° Southeast 475 547 33,800 660 Climbing FlightAware
10:55AM 36.9840 23.7700 114° Southeast 476 548 34,300 660 Climbing FlightAware
10:56AM 36.9460 23.8780 114° Southeast 477 549 34,800 480 Climbing FlightAware
10:56AM 36.9060 23.9930 113° Southeast 481 554 35,000 120 Climbing FlightAware
10:57AM 36.8700 24.0950 114° Southeast 476 548 35,000  Level FlightAware
10:58AM 36.8300 24.2070 114° Southeast 473 544 35,000  Level FlightAware
10:58AM 36.8010 24.2900 114° Southeast 472 543 35,000 -240 Level FlightAware
10:59AM 36.7600 24.4050 114° Southeast 475 547 34,700 -720 Descending FlightAware
11:00AM 36.7190 24.5200 114° Southeast 474 545 34,000 -960 Descending FlightAware
11:01AM 36.6840 24.6170 114° Southeast 469 540 33,400 -600 Descending FlightAware
11:02AM 36.6320 24.7610 114° Southeast 466 536 33,000 -300 Descending FlightAware
11:02AM 36.6050 24.8380 114° Southeast 463 533 33,000  Level FlightAware
11:03AM 36.5760 24.9170 115° Southeast 463 533 33,000  Level FlightAware
11:04AM 36.5320 25.0390 114° Southeast 463 533 33,000  Level FlightAware
11:04AM 36.4860 25.1660 114° Southeast 470 541 33,000  Level FlightAware
11:05AM 36.4340 25.3090 114° Southeast 470 541 33,000  Level FlightAware
11:06AM 36.3970 25.4110 114° Southeast 469 540 33,000  Level FlightAware
11:07AM 36.3670 25.4940 114° Southeast 469 540 33,000  Level FlightAware
11:07AM 36.3270 25.5990 115° Southeast 469 540 33,000  Level FlightAware
11:08AM 36.2820 25.7210 115° Southeast 464 534 33,000  Level FlightAware
11:09AM 36.2400 25.8320 115° Southeast 465 535 33,000  Level FlightAware
11:10AM 36.2050 25.9260 115° Southeast 466 536 33,000  Level FlightAware
11:10AM 36.1710 26.0190 114° Southeast 468 539 33,000  Level FlightAware
11:11AM 36.1260 26.1390 115° Southeast 468 539 33,000  Level FlightAware
11:12AM 36.0900 26.2350 115° Southeast 469 540 33,000  Level FlightAware
11:12AM 36.0490 26.3430 115° Southeast 468 539 33,000  Level FlightAware
11:13AM 36.0110 26.4410 116° Southeast 467 537 33,000  Level FlightAware
11:14AM 35.9750 26.5380 115° Southeast 468 539 33,000  Level FlightAware
11:15AM 35.9330 26.6460 116° Southeast 470 541 33,000  Level FlightAware
11:15AM 35.8980 26.7390 115° Southeast 469 540 33,000  Level FlightAware
11:16AM 35.8510 26.8610 115° Southeast 469 540 33,000  Level FlightAware
11:17AM 35.8140 26.9580 115° Southeast 469 540 33,000  Level FlightAware
11:18AM 35.7660 27.0800 116° Southeast 465 535 33,000  Level FlightAware
11:18AM 35.7270 27.1820 115° Southeast 464 534 33,000  Level FlightAware
11:19AM 35.6780 27.3110 115° Southeast 465 535 33,000  Level FlightAware
11:20AM 35.6480 27.3840 117° Southeast 464 534 33,000  Level FlightAware
11:20AM 35.6090 27.4830 116° Southeast 469 540 33,000  Level FlightAware
11:21AM 35.5810 27.5550 116° Southeast 468 539 33,000  Level FlightAware
11:22AM 35.5330 27.6760 116° Southeast 468 539 33,000  Level FlightAware
11:22AM 35.4930 27.7790 115° Southeast 473 544 33,000  Level FlightAware
11:23AM 35.4500 27.8860 116° Southeast 475 547 33,000  Level FlightAware
11:24AM 35.4060 27.9980 116° Southeast 474 545 33,000  Level FlightAware
11:25AM 35.3680 28.0930 116° Southeast 474 545 33,000  Level FlightAware
11:25AM 35.3230 28.2040 116° Southeast 473 544 33,000  Level FlightAware
11:26AM 35.2850 28.3000 116° Southeast 472 543 33,000  Level FlightAware
11:27AM 35.2470 28.3930 117° Southeast 471 542 33,000  Level FlightAware
11:27AM 35.2040 28.4990 116° Southeast 469 540 33,000  Level FlightAware
11:28AM 35.1670 28.5920 116° Southeast 469 540 33,000  Level FlightAware
11:29AM 35.1160 28.7160 117° Southeast 472 543 33,000  Level FlightAware
11:30AM 35.0770 28.8120 116° Southeast 471 542 33,000  Level FlightAware
11:30AM 35.0340 28.9180 116° Southeast 466 536 33,000  Level FlightAware
11:31AM 34.9860 29.0340 117° Southeast 463 533 33,000  Level FlightAware
11:32AM 34.9570 29.1050 116° Southeast 463 533 33,000  Level FlightAware
11:33AM 34.9090 29.2220 117° Southeast 463 533 33,000  Level FlightAware
11:33AM 34.8740 29.3050 117° Southeast 463 533 33,000  Level FlightAware
11:34AM 34.8320 29.4070 117° Southeast 465 535 33,000  Level FlightAware
11:35AM 34.7950 29.4970 117° Southeast 466 536 33,000  Level FlightAware
11:35AM 34.7510 29.6010 117° Southeast 464 534 33,000  Level FlightAware
11:36AM 34.7060 29.7070 117° Southeast 465 535 33,000  Level FlightAware
11:37AM 34.6540 29.8260 118° Southeast 467 537 33,000  Level FlightAware
11:38AM 34.6180 29.9040 119° Southeast 467 537 33,000  Level FlightAware
11:38AM 34.5740 30.0010 119° Southeast 467 537 33,000  Level FlightAware
11:39AM 34.5380 30.0800 119° Southeast 467 537 33,000  Level FlightAware
11:40AM 34.5020 30.1570 120° Southeast 467 537 33,000  Level FlightAware
11:40AM 34.4260 30.3030 122° Southeast 33,000  Level FlightAware
11:41AM 34.3740 30.4120 120° Southeast 472 543 33,000  Level FlightAware
11:42AM 34.3230 30.5190 120° Southeast 471 542 33,000  Level FlightAware
11:43AM 34.2780 30.6120 120° Southeast 471 542 33,000  Level FlightAware
11:43AM 34.2290 30.7150 120° Southeast 471 542 33,000  Level FlightAware
11:44AM 34.1840 30.8080 120° Southeast 475 547 33,000  Level FlightAware
11:45AM 34.1230 30.9340 120° Southeast 478 550 33,000  Level FlightAware
11:46AM 34.0440 31.0970 120° Southeast 483 556 33,000  Level FlightAware
11:47AM 33.9640 31.2600 121° Southeast 481 554 33,000  Level FlightAware
11:48AM 33.8840 31.4220 121° Southeast 482 555 33,000  Level FlightAware
11:50AM 33.7870 31.6190 121° Southeast 482 555 33,000  Level FlightAware
11:50AM 33.7400 31.7140 121° Southeast 482 555 33,000  Level FlightAware
11:51AM 33.6940 31.8070 121° Southeast 479 551 33,000  Level FlightAware
11:52AM 33.6480 31.9000 121° Southeast 478 550 33,000  Level FlightAware
11:53AM 33.5950 32.0050 121° Southeast 478 550 33,000  Level FlightAware
11:53AM 33.5490 32.0980 121° Southeast 478 550 33,000  Level FlightAware
11:54AM 33.5020 32.1900 121° Southeast 479 551 33,000  Level FlightAware
11:55AM 33.4510 32.2920 121° Southeast 479 551 33,000  Level FlightAware
11:55AM 33.4050 32.3840 121° Southeast 476 548 33,000  Level FlightAware
11:56AM 33.3580 32.4760 121° Southeast 475 547 33,000  Level FlightAware
11:57AM 33.3070 32.5760 121° Southeast 474 545 33,000  Level FlightAware
11:57AM 33.2600 32.6690 121° Southeast 473 544 33,000  Level FlightAware
11:58AM 33.2120 32.7640 121° Southeast 474 545 33,000  Level FlightAware
11:59AM 33.1650 32.8560 121° Southeast 476 548 33,000  Level FlightAware
12:00PM 33.1150 32.9530 122° Southeast 477 549 33,000  Level FlightAware
12:00PM 33.0740 33.0330 121° Southeast 478 550 33,000  Level FlightAware
12:02PM 32.9390 33.2970 121° Southeast 480 552 33,000  Level FlightAware
12:03PM 32.8800 33.4080 122° Southeast 485 558 33,000  Level FlightAware
12:04PM 32.8320 33.5000 122° Southeast 486 559 33,000  Level FlightAware
12:04PM 32.7810 33.5990 121° Southeast 488 562 33,000  Level FlightAware
12:05PM 32.7320 33.6910 122° Southeast 491 565 33,000  Level FlightAware
12:06PM 32.6830 33.7850 122° Southeast 493 567 33,000  Level FlightAware
12:06PM 32.6300 33.8860 122° Southeast 493 567 33,000 -240 Level FlightAware
12:07PM 32.5810 33.9790 122° Southeast 483 556 32,700 -1,380 Descending FlightAware
12:08PM 32.5380 34.0720 119° Southeast 474 545 31,200 -1,980 Descending FlightAware
12:08PM 32.4960 34.1740 116° Southeast 461 531 29,900 -1,980 Descending FlightAware
12:09PM 32.4590 34.2630 116° Southeast 459 528 28,400 -1,740 Descending FlightAware
12:10PM 32.4180 34.3630 116° Southeast 433 498 27,500 -1,320 Descending FlightAware
12:11PM 32.3860 34.4400 116° Southeast 416 479 26,600 -1,800 Descending FlightAware
12:11PM 32.3470 34.5340 116° Southeast 408 470 25,000 -1,980 Descending FlightAware
12:12PM 32.3140 34.6140 116° Southeast 398 458 23,800 -1,680 Descending FlightAware
12:13PM 32.2840 34.6870 116° Southeast 388 447 22,800 -1,560 Descending FlightAware
12:13PM 32.2460 34.7760 117° Southeast 376 433 21,600 -1,680 Descending FlightAware
12:14PM 32.2170 34.8470 116° Southeast 369 425 20,500 -1,140 Descending FlightAware
12:15PM 32.1850 34.9230 116° Southeast 367 422 20,000 -360 Descending FlightAware
12:15PM 32.1600 34.9840 116° Southeast 367 422 20,000  Level FlightAware
12:16PM 32.1350 35.0450 116° Southeast 367 422 20,000  Level FlightAware
12:17PM 32.1090 35.1070 116° Southeast 367 422 20,000  Level FlightAware
12:17PM 32.0840 35.1680 116° Southeast 367 422 20,000  Level FlightAware
12:18PM 32.0590 35.2290 116° Southeast 367 422 20,000 -2,160 Level FlightAware
12:21PM 31.9373 35.5072 117° Southeast  Level Estimated
12:22PM 31.8861 35.6237 117° Southeast  Level Estimated
12:23PM 31.8348 35.7401 117° Southeast  Level Estimated
12:24PM 31.7833 35.8563 117° Southeast  Level Estimated
12:24PM 31.8860 35.8190 117° Southeast 299 344 6,000  Level FlightAware
12:25PM 31.8780 35.8650 102° East 295 339 5,700 -840 Descending FlightAware
12:25PM 31.8740 35.8910 100° East 293 337 5,400 -900 Descending FlightAware
12:25PM 31.8670 35.9300 102° East 293 337 5,100 -600 Descending FlightAware
12:25PM 31.8630 35.9520 102° East 294 338 5,000 -420 Descending FlightAware
12:26PM 31.8550 36.0000 101° East 288 331 4,800 -420 Descending FlightAware
12:26PM 31.8510 36.0230 102° East 279 321 4,700 -180 Descending FlightAware
12:27PM 31.8450 36.0580 101° East 256 295 4,700  Level FlightAware
12:27PM 31.8420 36.0770 101° East 251 289 4,700 -180 Level FlightAware
12:27PM 31.8340 36.1200 102° East 257 296 4,600  Descending FlightAware
12:28PM 31.8280 36.1530 102° East 258 297 4,700 120 Climbing FlightAware
12:28PM 31.8210 36.1710 115° Southeast 260 299 4,700  Level FlightAware
12:28PM 31.8070 36.1830 144° Southeast 249 287 4,700 -180 Level FlightAware
12:29PM 31.7810 36.1940 160° South 235 270 4,600 -120 Descending FlightAware
12:29PM 31.7440 36.1820 195° South 173 199 4,600  Level FlightAware
12:30PM 31.7410 36.1670 257° West 169 194 4,600 -300 Level FlightAware
12:30PM 31.7380 36.1450 261° West 166 191 4,400 -780 Descending FlightAware
12:31PM 31.7340 36.1180 260° West 169 194 3,900 -780 Descending FlightAware
12:31PM 31.7310 36.0980 260° West 155 178 3,700 -660 Descending FlightAware
12:32PM 31.7280 36.0730 262° West 151 174 3,300 -780 Descending FlightAware
12:32PM 31.7270 36.0660 260° West 152 175 3,200 -780 Descending FlightAware
12:32PM 31.7230 36.0400 260° West 145 167 2,800 -720 Descending FlightAware
12:33PM 31.7210 36.0280 259° West 144 166 2,600 -600 Descending FlightAware
12:35PM 31.7226 35.9932 273° West  Level Estimated
12:36PM 31.7226 35.9932 140° Southeast  Level Estimated
12:37PM 31.7226 35.9932 140° Southeast  Level Estimated
12:38PM 31.7226 35.9932 140° Southeast  Level Estimated
12:39PM 31.7226 35.9932 140° Southeast  Level Estimated
12:40PM 31.7226 35.9932 140° Southeast  Level Estimated
12:41PM 31.7226 35.9932 140° Southeast  Level Estimated
12:42PM 31.7226 35.9932 140° Southeast  Level Estimated
12:43PM 31.7226 35.9932 140° Southeast  Level Estimated
12:44PM 31.7226 35.9932 140° Southeast  Level Estimated